Aviation Digital Data Service (ADDS)

Output produced by METARs form (1256 UTC 20 December 2014)
found at http://www.aviationweather.gov/adds/metars/
 
KUNV 201153Z 32005KT 10SM OVC019 M03/M07 A3023
KUNV 201053Z 00000KT 10SM OVC021 M03/M07 A3023
KUNV 201035Z AUTO 00000KT 10SM OVC021 M03/M07 A3023 RMK AO2 T10351071
KUNV 201015Z AUTO 00000KT 10SM OVC021 M03/M07 A3023 RMK AO2 T10351071
KUNV 200955Z AUTO 00000KT 10SM OVC023 M03/M07 A3023 RMK AO2 T10351073
KUNV 200935Z AUTO 00000KT 10SM OVC023 M03/M07 A3023 RMK AO2 T10351075
KUNV 200915Z AUTO 00000KT 10SM OVC023 M03/M07 A3023 RMK AO2 T10351075
KUNV 200855Z AUTO 00000KT 10SM OVC023 M03/M08 A3023 RMK AO2 T10351076
KUNV 200835Z AUTO 31003KT 10SM OVC023 M03/M08 A3023 RMK AO2 T10351076
KUNV 200815Z AUTO 00000KT 10SM OVC023 M04/M07 A3022 RMK AO2 T10361074
KUNV 200755Z AUTO 00000KT 10SM OVC023 M04/M08 A3022 RMK AO2 T10361077
KUNV 200735Z AUTO 32004KT 10SM OVC023 M03/M08 A3021 RMK AO2 T10351076
KUNV 200715Z AUTO 00000KT 10SM OVC023 M03/M08 A3021 RMK AO2 T10351076
KUNV 200655Z AUTO 30003KT 10SM OVC023 M03/M08 A3020 RMK AO2 T10351076
KUNV 200635Z AUTO 34006KT 10SM OVC023 M04/M08 A3019 RMK AO2 T10371077
KUNV 200615Z AUTO 32003KT 10SM OVC023 M03/M08 A3019 RMK AO2 T10351078
KUNV 200555Z AUTO 33003KT 10SM OVC023 M04/M08 A3020 RMK AO2 T10361078 11015 21038
KUNV 200535Z AUTO 00000KT 10SM BKN023 M04/M08 A3020 RMK AO2 T10381079
KUNV 200515Z AUTO 34004KT 10SM CLR M04/M08 A3020 RMK AO2 T10371078
KUNV 200455Z AUTO 33005KT 10SM SCT022 SCT080 M03/M08 A3020 RMK AO2 T10351076
KUNV 200435Z AUTO 00000KT 10SM SCT022 SCT080 M03/M08 A3021 RMK AO2 T10331076
KUNV 200415Z AUTO 33005KT 10SM CLR M03/M07 A3022 RMK AO2 T10291075
KUNV 200355Z AUTO 33006KT 10SM CLR M03/M08 A3021 RMK AO2 T10301076 400031030
KUNV 200335Z AUTO 33005G08KT 10SM CLR M03/M08 A3022 RMK AO2 T10261076
KUNV 200315Z AUTO 32010G14KT 10SM CLR M02/M07 A3022 RMK AO2 T10251075
KUNV 200255Z AUTO 30008KT 10SM CLR M02/M07 A3022 RMK AO2 T10231075
KUNV 200153Z 32006KT 10SM SCT031 M02/M07 A3020
KUNV 200053Z 32012KT 10SM BKN031 M02/M07 A3019
KUNV 192353Z 31006KT 10SM BKN031 M02/M07 A3018
KUNV 192253Z 31006KT 10SM BKN031 M01/M07 A3017
KUNV 192153Z 31009KT 10SM BKN031 00/M07 A3015
KUNV 192053Z 30014KT 10SM BKN031 00/M07 A3013
KUNV 191953Z 30006KT 10SM BKN029 00/M07 A3012
KUNV 191853Z 31007KT 10SM OVC029 00/M06 A3010
KUNV 191753Z 31007KT 10SM OVC027 00/M06 A3010
KUNV 191653Z 30009KT 10SM OVC025 00/M06 A3009
KUNV 191553Z 31012KT 10SM OVC025 M01/M06 A3013
KUNV 191453Z 30012KT 10SM OVC025 M01/M06 A3013
KUNV 191353Z 30012KT 10SM OVC025 M01/M06 A3012
KUNV 191253Z 30012KT 10SM OVC025 M01/M05 A3008
KUNV 191153Z 30012KT 10SM SCT020 OVC029 M01/M05 A3007
KUNV 191053Z 29010KT 10SM BKN021 OVC027 M01/M04 A3006
KUNV 191035Z AUTO 27007KT 10SM OVC019 M01/M04 A3006 RMK AO2 T10091041
KUNV 191015Z AUTO 28006KT 10SM OVC019 M01/M04 A3005 RMK AO2 T10101040
KUNV 190955Z AUTO 27008KT 10SM OVC019 M01/M04 A3005 RMK AO2 T10101040
KUNV 190935Z AUTO 27007KT 10SM OVC019 M01/M04 A3005 RMK AO2 T10111040
KUNV 190915Z AUTO 27009KT 10SM OVC019 M01/M04 A3005 RMK AO2 T10101040
KUNV 190855Z AUTO 27011G15KT 10SM OVC019 M01/M04 A3005 RMK AO2 T10101043
KUNV 190835Z AUTO 27006KT 10SM OVC018 M01/M04 A3005 RMK AO2 T10101043
KUNV 190815Z AUTO 26009KT 10SM OVC020 M01/M04 A3005 RMK AO2 T10101044
KUNV 190755Z AUTO 28011KT 10SM OVC020 M01/M04 A3005 RMK AO2 T10101042
KUNV 190735Z AUTO 26006KT 10SM OVC018 M01/M04 A3005 RMK AO2 T10101043
KUNV 190715Z AUTO 28009KT 10SM OVC018 M01/M04 A3005 RMK AO2 T10101045
KUNV 190655Z AUTO 28008KT 10SM OVC018 M01/M04 A3004 RMK AO2 T10101045
KUNV 190635Z AUTO 28010G15KT 10SM OVC018 M01/M04 A3004 RMK AO2 T10101045
KUNV 190615Z AUTO 29008G15KT 10SM OVC020 M01/M04 A3004 RMK AO2 T10101045
KUNV 190555Z AUTO 28010KT 10SM OVC020 M01/M04 A3004 RMK AO2 T10101045 11007 21011
KUNV 190535Z AUTO 28008KT 10SM OVC020 M01/M04 A3005 RMK AO2 T10101045
KUNV 190515Z AUTO 29008KT 10SM OVC022 M01/M05 A3004 RMK AO2 T10101046
KUNV 190455Z AUTO 28009KT 10SM OVC022 M01/M04 A3005 RMK AO2 T10101045
KUNV 190435Z AUTO 29007KT 10SM BKN018 OVC026 M01/M04 A3005 RMK AO2 T10111043
KUNV 190415Z AUTO 28009KT 10SM OVC016 M01/M04 A3005 RMK AO2 T10111043
KUNV 190355Z AUTO 28008KT 10SM OVC016 M01/M04 A3006 RMK AO2 T10111045 410051016
KUNV 190335Z AUTO 29008KT 10SM OVC018 M01/M04 A3006 RMK AO2 T10101043
KUNV 190315Z AUTO 30007KT 10SM OVC016 M01/M04 A3006 RMK AO2 T10101045
KUNV 190255Z AUTO 27004KT 10SM OVC016 M01/M04 A3006 RMK AO2 T10111044
KUNV 190153Z 30008G18KT 10SM OVC020 M01/M05 A3007